sensor_id;sensor_type;location;lat;lon;timestamp;P1;durP1;ratioP1;P2;durP2;ratioP2
9888;SDS011;4983;42.112;24.738;2023-12-29T00:00:34;53.17;;;25.90;;
9888;SDS011;4983;42.112;24.738;2023-12-29T00:02:59;42.85;;;22.85;;
9888;SDS011;4983;42.112;24.738;2023-12-29T00:05:24;44.15;;;21.33;;
9888;SDS011;4983;42.112;24.738;2023-12-29T00:07:51;37.85;;;21.50;;
9888;SDS011;4983;42.112;24.738;2023-12-29T00:10:17;33.53;;;18.65;;
9888;SDS011;4983;42.112;24.738;2023-12-29T00:12:42;32.92;;;17.70;;
9888;SDS011;4983;42.112;24.738;2023-12-29T00:15:08;32.83;;;17.95;;
9888;SDS011;4983;42.112;24.738;2023-12-29T00:17:34;27.52;;;16.90;;
9888;SDS011;4983;42.112;24.738;2023-12-29T00:20:03;31.05;;;16.70;;
9888;SDS011;4983;42.112;24.738;2023-12-29T00:22:29;31.35;;;18.13;;
9888;SDS011;4983;42.112;24.738;2023-12-29T00:24:55;28.88;;;17.10;;
9888;SDS011;4983;42.112;24.738;2023-12-29T00:27:20;29.58;;;16.23;;
9888;SDS011;4983;42.112;24.738;2023-12-29T00:29:46;30.25;;;16.58;;
9888;SDS011;4983;42.112;24.738;2023-12-29T00:32:11;27.55;;;16.35;;
9888;SDS011;4983;42.112;24.738;2023-12-29T00:34:37;27.95;;;17.15;;
9888;SDS011;4983;42.112;24.738;2023-12-29T00:37:03;32.13;;;16.27;;
9888;SDS011;4983;42.112;24.738;2023-12-29T00:39:28;26.13;;;15.80;;
9888;SDS011;4983;42.112;24.738;2023-12-29T00:41:56;32.65;;;17.55;;
9888;SDS011;4983;42.112;24.738;2023-12-29T00:44:22;40.40;;;18.35;;
9888;SDS011;4983;42.112;24.738;2023-12-29T00:46:48;32.92;;;19.02;;
9888;SDS011;4983;42.112;24.738;2023-12-29T00:49:14;34.97;;;18.08;;
9888;SDS011;4983;42.112;24.738;2023-12-29T00:51:40;33.95;;;16.65;;
9888;SDS011;4983;42.112;24.738;2023-12-29T00:54:08;33.60;;;19.13;;
9888;SDS011;4983;42.112;24.738;2023-12-29T00:56:34;38.17;;;22.45;;
9888;SDS011;4983;42.112;24.738;2023-12-29T00:58:59;49.30;;;31.73;;
9888;SDS011;4983;42.112;24.738;2023-12-29T01:01:25;36.75;;;19.88;;
9888;SDS011;4983;42.112;24.738;2023-12-29T01:03:50;36.83;;;19.27;;
9888;SDS011;4983;42.112;24.738;2023-12-29T01:06:19;27.60;;;16.17;;
9888;SDS011;4983;42.112;24.738;2023-12-29T01:08:45;30.10;;;16.42;;
9888;SDS011;4983;42.112;24.738;2023-12-29T01:11:10;32.97;;;17.23;;
9888;SDS011;4983;42.112;24.738;2023-12-29T01:13:36;33.80;;;17.10;;
9888;SDS011;4983;42.112;24.738;2023-12-29T01:16:01;30.45;;;17.50;;
9888;SDS011;4983;42.112;24.738;2023-12-29T01:18:27;34.70;;;20.55;;
9888;SDS011;4983;42.112;24.738;2023-12-29T01:20:53;31.25;;;17.17;;
9888;SDS011;4983;42.112;24.738;2023-12-29T01:23:18;29.80;;;16.95;;
9888;SDS011;4983;42.112;24.738;2023-12-29T01:25:44;25.88;;;15.50;;
9888;SDS011;4983;42.112;24.738;2023-12-29T01:28:09;33.72;;;17.25;;
9888;SDS011;4983;42.112;24.738;2023-12-29T01:30:35;28.23;;;16.10;;
9888;SDS011;4983;42.112;24.738;2023-12-29T01:33:00;31.20;;;18.00;;
9888;SDS011;4983;42.112;24.738;2023-12-29T01:35:26;32.75;;;19.67;;
9888;SDS011;4983;42.112;24.738;2023-12-29T01:37:51;33.15;;;17.90;;
9888;SDS011;4983;42.112;24.738;2023-12-29T01:40:17;29.13;;;17.10;;
9888;SDS011;4983;42.112;24.738;2023-12-29T01:42:42;27.95;;;17.40;;
9888;SDS011;4983;42.112;24.738;2023-12-29T01:45:12;32.13;;;17.85;;
9888;SDS011;4983;42.112;24.738;2023-12-29T01:47:46;22.17;;;13.23;;
9888;SDS011;4983;42.112;24.738;2023-12-29T01:50:12;23.83;;;13.02;;
9888;SDS011;4983;42.112;24.738;2023-12-29T01:52:38;21.88;;;13.45;;
9888;SDS011;4983;42.112;24.738;2023-12-29T01:55:04;23.45;;;13.20;;
9888;SDS011;4983;42.112;24.738;2023-12-29T01:57:30;24.92;;;14.18;;
9888;SDS011;4983;42.112;24.738;2023-12-29T02:00:00;23.45;;;12.68;;
9888;SDS011;4983;42.112;24.738;2023-12-29T02:02:25;22.60;;;13.23;;
9888;SDS011;4983;42.112;24.738;2023-12-29T02:04:51;24.10;;;13.23;;
9888;SDS011;4983;42.112;24.738;2023-12-29T02:07:16;22.20;;;13.57;;
9888;SDS011;4983;42.112;24.738;2023-12-29T02:09:44;21.05;;;14.23;;
9888;SDS011;4983;42.112;24.738;2023-12-29T02:12:09;25.30;;;14.82;;
9888;SDS011;4983;42.112;24.738;2023-12-29T02:14:35;26.80;;;15.82;;
9888;SDS011;4983;42.112;24.738;2023-12-29T02:22:09;30.88;;;15.90;;
9888;SDS011;4983;42.112;24.738;2023-12-29T02:24:35;28.80;;;14.75;;
9888;SDS011;4983;42.112;24.738;2023-12-29T02:29:36;26.95;;;13.43;;
9888;SDS011;4983;42.112;24.738;2023-12-29T02:32:05;29.45;;;14.20;;
9888;SDS011;4983;42.112;24.738;2023-12-29T02:34:36;28.00;;;15.68;;
9888;SDS011;4983;42.112;24.738;2023-12-29T02:37:05;34.50;;;16.42;;
9888;SDS011;4983;42.112;24.738;2023-12-29T02:39:32;28.63;;;16.02;;
9888;SDS011;4983;42.112;24.738;2023-12-29T02:41:58;28.65;;;16.48;;
9888;SDS011;4983;42.112;24.738;2023-12-29T02:44:23;27.65;;;16.33;;
9888;SDS011;4983;42.112;24.738;2023-12-29T02:46:48;51.80;;;19.23;;
9888;SDS011;4983;42.112;24.738;2023-12-29T02:49:14;38.88;;;18.17;;
9888;SDS011;4983;42.112;24.738;2023-12-29T02:51:39;23.77;;;16.10;;
9888;SDS011;4983;42.112;24.738;2023-12-29T02:54:05;30.63;;;15.90;;
9888;SDS011;4983;42.112;24.738;2023-12-29T02:56:32;30.15;;;16.30;;
9888;SDS011;4983;42.112;24.738;2023-12-29T02:58:57;30.40;;;16.33;;
9888;SDS011;4983;42.112;24.738;2023-12-29T03:01:23;34.50;;;16.75;;
9888;SDS011;4983;42.112;24.738;2023-12-29T03:03:48;33.95;;;15.45;;
9888;SDS011;4983;42.112;24.738;2023-12-29T03:06:14;25.85;;;15.00;;
9888;SDS011;4983;42.112;24.738;2023-12-29T03:08:39;31.55;;;16.20;;
9888;SDS011;4983;42.112;24.738;2023-12-29T03:11:05;33.33;;;15.20;;
9888;SDS011;4983;42.112;24.738;2023-12-29T03:13:30;29.48;;;17.40;;
9888;SDS011;4983;42.112;24.738;2023-12-29T03:15:56;27.08;;;15.23;;
9888;SDS011;4983;42.112;24.738;2023-12-29T03:18:22;26.08;;;15.05;;
9888;SDS011;4983;42.112;24.738;2023-12-29T03:20:48;31.98;;;16.33;;
9888;SDS011;4983;42.112;24.738;2023-12-29T03:23:13;28.75;;;15.30;;
9888;SDS011;4983;42.112;24.738;2023-12-29T03:25:39;26.50;;;16.63;;
9888;SDS011;4983;42.112;24.738;2023-12-29T03:28:04;26.90;;;15.20;;
9888;SDS011;4983;42.112;24.738;2023-12-29T03:30:30;27.73;;;15.90;;
9888;SDS011;4983;42.112;24.738;2023-12-29T03:32:55;26.60;;;16.92;;
9888;SDS011;4983;42.112;24.738;2023-12-29T03:35:21;36.75;;;25.10;;
9888;SDS011;4983;42.112;24.738;2023-12-29T03:37:46;36.78;;;22.58;;
9888;SDS011;4983;42.112;24.738;2023-12-29T03:40:12;35.08;;;21.15;;
9888;SDS011;4983;42.112;24.738;2023-12-29T03:42:37;33.03;;;19.88;;
9888;SDS011;4983;42.112;24.738;2023-12-29T03:45:04;28.13;;;17.58;;
9888;SDS011;4983;42.112;24.738;2023-12-29T03:47:30;27.42;;;15.02;;
9888;SDS011;4983;42.112;24.738;2023-12-29T03:49:56;26.30;;;15.75;;
9888;SDS011;4983;42.112;24.738;2023-12-29T03:52:22;31.65;;;15.88;;
9888;SDS011;4983;42.112;24.738;2023-12-29T03:54:47;27.20;;;15.50;;
9888;SDS011;4983;42.112;24.738;2023-12-29T03:57:13;27.75;;;15.98;;
9888;SDS011;4983;42.112;24.738;2023-12-29T03:59:39;23.13;;;15.20;;
9888;SDS011;4983;42.112;24.738;2023-12-29T04:02:04;29.50;;;17.38;;
9888;SDS011;4983;42.112;24.738;2023-12-29T04:04:29;27.45;;;17.30;;
9888;SDS011;4983;42.112;24.738;2023-12-29T04:06:55;33.80;;;17.45;;
9888;SDS011;4983;42.112;24.738;2023-12-29T04:09:21;22.20;;;15.38;;
9888;SDS011;4983;42.112;24.738;2023-12-29T04:11:46;31.83;;;18.75;;
9888;SDS011;4983;42.112;24.738;2023-12-29T04:14:11;29.75;;;17.92;;
9888;SDS011;4983;42.112;24.738;2023-12-29T04:16:38;36.03;;;18.67;;
9888;SDS011;4983;42.112;24.738;2023-12-29T04:19:04;27.05;;;17.80;;
9888;SDS011;4983;42.112;24.738;2023-12-29T04:21:29;31.20;;;16.63;;
9888;SDS011;4983;42.112;24.738;2023-12-29T04:23:55;27.55;;;16.17;;
9888;SDS011;4983;42.112;24.738;2023-12-29T04:26:20;34.85;;;16.42;;
9888;SDS011;4983;42.112;24.738;2023-12-29T04:28:46;35.65;;;17.33;;
9888;SDS011;4983;42.112;24.738;2023-12-29T04:31:11;22.20;;;13.98;;
9888;SDS011;4983;42.112;24.738;2023-12-29T04:33:37;24.88;;;12.88;;
9888;SDS011;4983;42.112;24.738;2023-12-29T04:36:02;25.20;;;16.08;;
9888;SDS011;4983;42.112;24.738;2023-12-29T04:38:28;30.95;;;15.77;;
9888;SDS011;4983;42.112;24.738;2023-12-29T04:40:54;27.88;;;16.83;;
9888;SDS011;4983;42.112;24.738;2023-12-29T04:43:19;24.52;;;12.60;;
9888;SDS011;4983;42.112;24.738;2023-12-29T04:45:45;25.95;;;14.55;;
9888;SDS011;4983;42.112;24.738;2023-12-29T04:48:10;30.13;;;14.40;;
9888;SDS011;4983;42.112;24.738;2023-12-29T04:50:36;26.38;;;15.25;;
9888;SDS011;4983;42.112;24.738;2023-12-29T04:53:01;24.25;;;14.20;;
9888;SDS011;4983;42.112;24.738;2023-12-29T04:55:27;29.25;;;13.07;;
9888;SDS011;4983;42.112;24.738;2023-12-29T04:57:52;26.05;;;14.45;;
9888;SDS011;4983;42.112;24.738;2023-12-29T05:00:17;22.98;;;13.05;;
9888;SDS011;4983;42.112;24.738;2023-12-29T05:02:43;23.85;;;13.55;;
9888;SDS011;4983;42.112;24.738;2023-12-29T05:05:09;36.63;;;14.13;;
9888;SDS011;4983;42.112;24.738;2023-12-29T05:07:34;25.73;;;14.68;;
9888;SDS011;4983;42.112;24.738;2023-12-29T05:10:00;38.63;;;16.75;;
9888;SDS011;4983;42.112;24.738;2023-12-29T05:12:26;42.45;;;16.42;;
9888;SDS011;4983;42.112;24.738;2023-12-29T05:14:51;42.15;;;17.33;;
9888;SDS011;4983;42.112;24.738;2023-12-29T05:17:17;33.85;;;16.10;;
9888;SDS011;4983;42.112;24.738;2023-12-29T05:19:42;32.42;;;15.15;;
9888;SDS011;4983;42.112;24.738;2023-12-29T05:22:07;26.60;;;14.65;;
9888;SDS011;4983;42.112;24.738;2023-12-29T05:24:33;35.53;;;15.55;;
9888;SDS011;4983;42.112;24.738;2023-12-29T05:26:58;27.88;;;15.18;;
9888;SDS011;4983;42.112;24.738;2023-12-29T05:29:24;34.83;;;17.98;;
9888;SDS011;4983;42.112;24.738;2023-12-29T05:31:49;26.15;;;14.90;;
9888;SDS011;4983;42.112;24.738;2023-12-29T05:34:15;25.83;;;14.30;;
9888;SDS011;4983;42.112;24.738;2023-12-29T05:36:40;26.95;;;14.02;;
9888;SDS011;4983;42.112;24.738;2023-12-29T05:39:07;20.52;;;13.15;;
9888;SDS011;4983;42.112;24.738;2023-12-29T05:41:32;24.58;;;13.38;;
9888;SDS011;4983;42.112;24.738;2023-12-29T05:43:58;22.67;;;13.80;;
9888;SDS011;4983;42.112;24.738;2023-12-29T05:46:24;23.02;;;14.85;;
9888;SDS011;4983;42.112;24.738;2023-12-29T05:48:49;22.83;;;13.32;;
9888;SDS011;4983;42.112;24.738;2023-12-29T05:51:17;28.95;;;15.50;;
9888;SDS011;4983;42.112;24.738;2023-12-29T05:53:42;25.75;;;15.30;;
9888;SDS011;4983;42.112;24.738;2023-12-29T05:56:12;32.58;;;15.35;;
9888;SDS011;4983;42.112;24.738;2023-12-29T05:58:40;29.85;;;13.93;;
9888;SDS011;4983;42.112;24.738;2023-12-29T06:01:06;28.35;;;15.05;;
9888;SDS011;4983;42.112;24.738;2023-12-29T06:03:32;32.05;;;16.33;;
9888;SDS011;4983;42.112;24.738;2023-12-29T06:05:58;33.65;;;17.35;;
9888;SDS011;4983;42.112;24.738;2023-12-29T06:08:23;34.83;;;15.45;;
9888;SDS011;4983;42.112;24.738;2023-12-29T06:10:49;30.70;;;12.75;;
9888;SDS011;4983;42.112;24.738;2023-12-29T06:13:14;26.85;;;14.15;;
9888;SDS011;4983;42.112;24.738;2023-12-29T06:15:40;30.02;;;14.40;;
9888;SDS011;4983;42.112;24.738;2023-12-29T06:18:05;35.30;;;14.30;;
9888;SDS011;4983;42.112;24.738;2023-12-29T06:20:31;28.10;;;16.10;;
9888;SDS011;4983;42.112;24.738;2023-12-29T06:22:56;32.75;;;16.15;;
9888;SDS011;4983;42.112;24.738;2023-12-29T06:25:22;22.80;;;13.85;;
9888;SDS011;4983;42.112;24.738;2023-12-29T06:27:48;30.80;;;15.38;;
9888;SDS011;4983;42.112;24.738;2023-12-29T06:30:13;30.90;;;15.68;;
9888;SDS011;4983;42.112;24.738;2023-12-29T06:32:40;25.05;;;14.35;;
9888;SDS011;4983;42.112;24.738;2023-12-29T06:35:06;31.95;;;15.90;;
9888;SDS011;4983;42.112;24.738;2023-12-29T06:37:31;30.17;;;15.40;;
9888;SDS011;4983;42.112;24.738;2023-12-29T06:39:58;29.98;;;17.48;;
9888;SDS011;4983;42.112;24.738;2023-12-29T06:42:24;32.20;;;16.13;;
9888;SDS011;4983;42.112;24.738;2023-12-29T06:44:49;40.38;;;23.00;;
9888;SDS011;4983;42.112;24.738;2023-12-29T06:47:15;39.83;;;21.30;;
9888;SDS011;4983;42.112;24.738;2023-12-29T06:49:41;49.25;;;23.65;;
9888;SDS011;4983;42.112;24.738;2023-12-29T06:52:06;37.33;;;22.70;;
9888;SDS011;4983;42.112;24.738;2023-12-29T06:54:33;38.35;;;20.80;;
9888;SDS011;4983;42.112;24.738;2023-12-29T06:56:59;36.97;;;22.10;;
9888;SDS011;4983;42.112;24.738;2023-12-29T06:59:24;27.15;;;20.40;;
9888;SDS011;4983;42.112;24.738;2023-12-29T07:01:50;28.98;;;19.65;;
9888;SDS011;4983;42.112;24.738;2023-12-29T07:04:16;26.58;;;18.65;;
9888;SDS011;4983;42.112;24.738;2023-12-29T07:06:41;22.88;;;16.83;;
9888;SDS011;4983;42.112;24.738;2023-12-29T07:09:08;23.65;;;17.75;;
9888;SDS011;4983;42.112;24.738;2023-12-29T07:11:34;24.23;;;16.90;;
9888;SDS011;4983;42.112;24.738;2023-12-29T07:14:01;19.38;;;14.60;;
9888;SDS011;4983;42.112;24.738;2023-12-29T07:16:26;17.63;;;14.05;;
9888;SDS011;4983;42.112;24.738;2023-12-29T07:18:52;19.00;;;14.00;;
9888;SDS011;4983;42.112;24.738;2023-12-29T07:21:17;14.25;;;12.75;;
9888;SDS011;4983;42.112;24.738;2023-12-29T07:23:43;14.85;;;11.57;;
9888;SDS011;4983;42.112;24.738;2023-12-29T07:26:09;18.02;;;14.10;;
9888;SDS011;4983;42.112;24.738;2023-12-29T07:28:34;15.27;;;12.77;;
9888;SDS011;4983;42.112;24.738;2023-12-29T07:31:00;17.08;;;13.60;;
9888;SDS011;4983;42.112;24.738;2023-12-29T07:33:26;18.88;;;13.27;;
9888;SDS011;4983;42.112;24.738;2023-12-29T07:35:52;17.98;;;13.20;;
9888;SDS011;4983;42.112;24.738;2023-12-29T07:38:18;18.52;;;14.93;;
9888;SDS011;4983;42.112;24.738;2023-12-29T07:40:44;19.02;;;13.68;;
9888;SDS011;4983;42.112;24.738;2023-12-29T07:43:10;20.15;;;14.43;;
9888;SDS011;4983;42.112;24.738;2023-12-29T07:45:35;19.73;;;14.15;;
9888;SDS011;4983;42.112;24.738;2023-12-29T07:48:02;17.80;;;13.20;;
9888;SDS011;4983;42.112;24.738;2023-12-29T07:50:28;22.27;;;15.75;;
9888;SDS011;4983;42.112;24.738;2023-12-29T07:52:54;20.70;;;16.05;;
9888;SDS011;4983;42.112;24.738;2023-12-29T07:55:20;19.73;;;14.63;;
9888;SDS011;4983;42.112;24.738;2023-12-29T07:57:45;21.35;;;15.27;;
9888;SDS011;4983;42.112;24.738;2023-12-29T08:00:12;21.95;;;15.68;;
9888;SDS011;4983;42.112;24.738;2023-12-29T08:02:40;23.90;;;15.13;;
9888;SDS011;4983;42.112;24.738;2023-12-29T08:05:05;17.60;;;13.77;;
9888;SDS011;4983;42.112;24.738;2023-12-29T08:07:33;20.42;;;15.65;;
9888;SDS011;4983;42.112;24.738;2023-12-29T08:09:59;18.30;;;14.40;;
9888;SDS011;4983;42.112;24.738;2023-12-29T08:12:25;23.73;;;17.02;;
9888;SDS011;4983;42.112;24.738;2023-12-29T08:14:50;19.75;;;15.07;;
9888;SDS011;4983;42.112;24.738;2023-12-29T08:17:16;24.52;;;16.02;;
9888;SDS011;4983;42.112;24.738;2023-12-29T08:19:41;23.08;;;15.73;;
9888;SDS011;4983;42.112;24.738;2023-12-29T08:22:07;22.45;;;17.67;;
9888;SDS011;4983;42.112;24.738;2023-12-29T08:24:32;24.92;;;15.13;;
9888;SDS011;4983;42.112;24.738;2023-12-29T08:26:58;22.05;;;14.82;;
9888;SDS011;4983;42.112;24.738;2023-12-29T08:29:24;22.75;;;15.27;;
9888;SDS011;4983;42.112;24.738;2023-12-29T08:31:50;16.75;;;12.75;;
9888;SDS011;4983;42.112;24.738;2023-12-29T08:34:16;16.45;;;14.32;;
9888;SDS011;4983;42.112;24.738;2023-12-29T08:36:41;23.63;;;14.13;;
9888;SDS011;4983;42.112;24.738;2023-12-29T08:39:07;24.77;;;17.58;;
9888;SDS011;4983;42.112;24.738;2023-12-29T08:41:34;21.02;;;13.82;;
9888;SDS011;4983;42.112;24.738;2023-12-29T08:44:00;19.25;;;13.40;;
9888;SDS011;4983;42.112;24.738;2023-12-29T08:46:25;19.20;;;14.07;;
9888;SDS011;4983;42.112;24.738;2023-12-29T08:48:51;18.50;;;13.98;;
9888;SDS011;4983;42.112;24.738;2023-12-29T08:51:16;18.55;;;12.32;;
9888;SDS011;4983;42.112;24.738;2023-12-29T08:53:42;18.38;;;12.38;;
9888;SDS011;4983;42.112;24.738;2023-12-29T08:56:07;13.80;;;10.70;;
9888;SDS011;4983;42.112;24.738;2023-12-29T08:58:33;15.68;;;11.77;;
9888;SDS011;4983;42.112;24.738;2023-12-29T09:00:58;15.82;;;11.80;;
9888;SDS011;4983;42.112;24.738;2023-12-29T09:03:24;12.48;;;9.38;;
9888;SDS011;4983;42.112;24.738;2023-12-29T09:05:49;18.50;;;10.80;;
9888;SDS011;4983;42.112;24.738;2023-12-29T09:08:15;20.85;;;11.02;;
9888;SDS011;4983;42.112;24.738;2023-12-29T09:10:40;14.02;;;9.57;;
9888;SDS011;4983;42.112;24.738;2023-12-29T09:13:07;16.55;;;9.90;;
9888;SDS011;4983;42.112;24.738;2023-12-29T09:15:32;13.27;;;9.23;;
9888;SDS011;4983;42.112;24.738;2023-12-29T09:17:59;16.83;;;9.32;;
9888;SDS011;4983;42.112;24.738;2023-12-29T09:20:25;14.90;;;9.13;;
9888;SDS011;4983;42.112;24.738;2023-12-29T09:22:50;19.90;;;9.88;;
9888;SDS011;4983;42.112;24.738;2023-12-29T09:25:16;14.38;;;10.32;;
9888;SDS011;4983;42.112;24.738;2023-12-29T09:27:42;17.90;;;11.05;;
9888;SDS011;4983;42.112;24.738;2023-12-29T09:30:09;24.67;;;11.85;;
9888;SDS011;4983;42.112;24.738;2023-12-29T09:32:35;18.67;;;11.23;;
9888;SDS011;4983;42.112;24.738;2023-12-29T09:35:00;16.98;;;11.65;;
9888;SDS011;4983;42.112;24.738;2023-12-29T09:37:26;13.55;;;10.95;;
9888;SDS011;4983;42.112;24.738;2023-12-29T09:39:51;18.77;;;11.20;;
9888;SDS011;4983;42.112;24.738;2023-12-29T09:42:20;18.02;;;10.07;;
9888;SDS011;4983;42.112;24.738;2023-12-29T09:47:19;17.10;;;11.10;;
9888;SDS011;4983;42.112;24.738;2023-12-29T09:49:48;14.48;;;10.07;;
9888;SDS011;4983;42.112;24.738;2023-12-29T09:52:14;19.15;;;11.05;;
9888;SDS011;4983;42.112;24.738;2023-12-29T09:54:42;14.57;;;10.15;;
9888;SDS011;4983;42.112;24.738;2023-12-29T09:57:08;21.27;;;11.07;;
9888;SDS011;4983;42.112;24.738;2023-12-29T09:59:34;20.75;;;10.70;;
9888;SDS011;4983;42.112;24.738;2023-12-29T10:02:07;32.95;;;11.27;;
9888;SDS011;4983;42.112;24.738;2023-12-29T10:04:38;19.15;;;10.35;;
9888;SDS011;4983;42.112;24.738;2023-12-29T10:07:04;17.50;;;10.82;;
9888;SDS011;4983;42.112;24.738;2023-12-29T10:09:33;22.88;;;12.25;;
9888;SDS011;4983;42.112;24.738;2023-12-29T10:11:59;18.15;;;11.02;;
9888;SDS011;4983;42.112;24.738;2023-12-29T10:14:35;15.38;;;10.82;;
9888;SDS011;4983;42.112;24.738;2023-12-29T10:23:11;21.70;;;10.48;;
9888;SDS011;4983;42.112;24.738;2023-12-29T10:25:41;13.30;;;8.95;;
9888;SDS011;4983;42.112;24.738;2023-12-29T10:28:11;12.27;;;9.88;;
9888;SDS011;4983;42.112;24.738;2023-12-29T10:30:38;25.73;;;8.88;;
9888;SDS011;4983;42.112;24.738;2023-12-29T10:33:04;13.10;;;8.65;;
9888;SDS011;4983;42.112;24.738;2023-12-29T10:35:30;17.15;;;7.97;;
9888;SDS011;4983;42.112;24.738;2023-12-29T10:38:08;10.90;;;7.32;;
9888;SDS011;4983;42.112;24.738;2023-12-29T10:40:35;22.13;;;8.15;;
9888;SDS011;4983;42.112;24.738;2023-12-29T10:43:01;10.05;;;6.97;;
9888;SDS011;4983;42.112;24.738;2023-12-29T10:45:32;28.23;;;8.32;;
9888;SDS011;4983;42.112;24.738;2023-12-29T10:47:59;40.70;;;9.27;;
9888;SDS011;4983;42.112;24.738;2023-12-29T10:50:25;12.50;;;7.53;;
9888;SDS011;4983;42.112;24.738;2023-12-29T10:52:57;14.15;;;7.32;;
9888;SDS011;4983;42.112;24.738;2023-12-29T10:55:36;21.95;;;8.90;;
9888;SDS011;4983;42.112;24.738;2023-12-29T10:58:01;17.73;;;10.07;;
9888;SDS011;4983;42.112;24.738;2023-12-29T11:00:30;13.80;;;8.65;;
9888;SDS011;4983;42.112;24.738;2023-12-29T11:02:56;11.45;;;7.07;;
9888;SDS011;4983;42.112;24.738;2023-12-29T11:05:24;16.05;;;8.15;;
9888;SDS011;4983;42.112;24.738;2023-12-29T11:07:50;23.15;;;9.10;;
9888;SDS011;4983;42.112;24.738;2023-12-29T11:10:19;12.10;;;7.13;;
9888;SDS011;4983;42.112;24.738;2023-12-29T11:12:48;25.92;;;9.60;;
9888;SDS011;4983;42.112;24.738;2023-12-29T11:15:14;18.00;;;8.57;;
9888;SDS011;4983;42.112;24.738;2023-12-29T11:17:41;18.98;;;7.88;;
9888;SDS011;4983;42.112;24.738;2023-12-29T11:20:15;12.35;;;8.82;;
9888;SDS011;4983;42.112;24.738;2023-12-29T11:22:46;14.23;;;7.07;;
9888;SDS011;4983;42.112;24.738;2023-12-29T11:25:12;10.70;;;7.47;;
9888;SDS011;4983;42.112;24.738;2023-12-29T11:27:38;12.18;;;8.10;;
9888;SDS011;4983;42.112;24.738;2023-12-29T11:30:04;10.57;;;7.45;;
9888;SDS011;4983;42.112;24.738;2023-12-29T11:35:12;14.20;;;9.27;;
9888;SDS011;4983;42.112;24.738;2023-12-29T11:40:41;15.80;;;7.78;;
9888;SDS011;4983;42.112;24.738;2023-12-29T11:43:15;14.48;;;8.57;;
9888;SDS011;4983;42.112;24.738;2023-12-29T11:45:42;24.40;;;9.45;;
9888;SDS011;4983;42.112;24.738;2023-12-29T11:48:09;18.67;;;9.50;;
9888;SDS011;4983;42.112;24.738;2023-12-29T11:50:36;42.45;;;9.93;;
9888;SDS011;4983;42.112;24.738;2023-12-29T11:53:05;60.00;;;11.23;;
9888;SDS011;4983;42.112;24.738;2023-12-29T11:58:01;12.05;;;6.68;;
9888;SDS011;4983;42.112;24.738;2023-12-29T12:00:48;20.63;;;7.93;;
9888;SDS011;4983;42.112;24.738;2023-12-29T12:03:24;71.88;;;10.07;;
9888;SDS011;4983;42.112;24.738;2023-12-29T12:05:49;9.23;;;5.95;;
9888;SDS011;4983;42.112;24.738;2023-12-29T12:08:33;9.00;;;6.07;;
9888;SDS011;4983;42.112;24.738;2023-12-29T12:13:53;33.28;;;10.93;;
9888;SDS011;4983;42.112;24.738;2023-12-29T12:19:16;53.35;;;10.93;;
9888;SDS011;4983;42.112;24.738;2023-12-29T12:21:45;23.25;;;10.07;;
9888;SDS011;4983;42.112;24.738;2023-12-29T12:24:19;13.75;;;7.88;;
9888;SDS011;4983;42.112;24.738;2023-12-29T12:26:45;15.05;;;7.97;;
9888;SDS011;4983;42.112;24.738;2023-12-29T12:29:10;14.15;;;8.18;;
9888;SDS011;4983;42.112;24.738;2023-12-29T12:31:51;14.23;;;6.95;;
9888;SDS011;4983;42.112;24.738;2023-12-29T12:34:20;60.13;;;10.93;;
9888;SDS011;4983;42.112;24.738;2023-12-29T12:36:53;10.38;;;7.32;;
9888;SDS011;4983;42.112;24.738;2023-12-29T12:39:22;46.10;;;9.10;;
9888;SDS011;4983;42.112;24.738;2023-12-29T12:41:48;12.55;;;5.78;;
9888;SDS011;4983;42.112;24.738;2023-12-29T12:44:14;56.60;;;9.07;;
9888;SDS011;4983;42.112;24.738;2023-12-29T12:49:12;15.63;;;5.07;;
9888;SDS011;4983;42.112;24.738;2023-12-29T12:51:38;99.43;;;12.40;;
9888;SDS011;4983;42.112;24.738;2023-12-29T12:54:04;25.52;;;6.10;;
9888;SDS011;4983;42.112;24.738;2023-12-29T12:56:30;42.90;;;7.03;;
9888;SDS011;4983;42.112;24.738;2023-12-29T12:58:56;81.30;;;10.98;;
9888;SDS011;4983;42.112;24.738;2023-12-29T13:01:23;60.53;;;10.55;;
9888;SDS011;4983;42.112;24.738;2023-12-29T13:03:51;25.05;;;7.53;;
9888;SDS011;4983;42.112;24.738;2023-12-29T13:06:17;61.55;;;8.82;;
9888;SDS011;4983;42.112;24.738;2023-12-29T13:08:43;30.73;;;7.32;;
9888;SDS011;4983;42.112;24.738;2023-12-29T13:11:09;33.60;;;7.85;;
9888;SDS011;4983;42.112;24.738;2023-12-29T13:13:41;53.75;;;10.98;;
9888;SDS011;4983;42.112;24.738;2023-12-29T13:16:07;17.42;;;7.50;;
9888;SDS011;4983;42.112;24.738;2023-12-29T13:18:33;14.77;;;7.72;;
9888;SDS011;4983;42.112;24.738;2023-12-29T13:21:00;13.18;;;5.82;;
9888;SDS011;4983;42.112;24.738;2023-12-29T13:23:26;30.23;;;6.75;;
9888;SDS011;4983;42.112;24.738;2023-12-29T13:26:05;54.55;;;7.65;;
9888;SDS011;4983;42.112;24.738;2023-12-29T13:28:34;32.05;;;5.72;;
9888;SDS011;4983;42.112;24.738;2023-12-29T13:31:00;10.35;;;4.85;;
9888;SDS011;4983;42.112;24.738;2023-12-29T13:33:29;23.50;;;5.95;;
9888;SDS011;4983;42.112;24.738;2023-12-29T13:36:16;14.68;;;5.43;;
9888;SDS011;4983;42.112;24.738;2023-12-29T13:38:49;47.13;;;6.55;;
9888;SDS011;4983;42.112;24.738;2023-12-29T13:41:22;149.13;;;14.00;;
9888;SDS011;4983;42.112;24.738;2023-12-29T13:43:50;29.85;;;5.88;;
9888;SDS011;4983;42.112;24.738;2023-12-29T13:46:18;14.68;;;5.85;;
9888;SDS011;4983;42.112;24.738;2023-12-29T13:48:44;6.85;;;5.25;;
9888;SDS011;4983;42.112;24.738;2023-12-29T13:51:16;18.05;;;5.43;;
9888;SDS011;4983;42.112;24.738;2023-12-29T13:53:42;29.58;;;6.18;;
9888;SDS011;4983;42.112;24.738;2023-12-29T13:56:08;7.20;;;4.28;;
9888;SDS011;4983;42.112;24.738;2023-12-29T13:58:34;49.38;;;8.30;;
9888;SDS011;4983;42.112;24.738;2023-12-29T14:01:00;19.17;;;5.50;;
9888;SDS011;4983;42.112;24.738;2023-12-29T14:03:31;9.98;;;4.20;;
9888;SDS011;4983;42.112;24.738;2023-12-29T14:06:00;15.88;;;4.65;;
9888;SDS011;4983;42.112;24.738;2023-12-29T14:08:33;10.20;;;3.55;;
9888;SDS011;4983;42.112;24.738;2023-12-29T14:11:09;10.75;;;4.40;;
9888;SDS011;4983;42.112;24.738;2023-12-29T14:13:35;66.22;;;6.72;;
9888;SDS011;4983;42.112;24.738;2023-12-29T14:16:06;53.97;;;7.38;;
9888;SDS011;4983;42.112;24.738;2023-12-29T14:21:03;32.00;;;9.88;;
9888;SDS011;4983;42.112;24.738;2023-12-29T14:23:55;14.23;;;8.63;;
9888;SDS011;4983;42.112;24.738;2023-12-29T14:26:23;19.88;;;13.65;;
9888;SDS011;4983;42.112;24.738;2023-12-29T14:28:59;21.83;;;14.23;;
9888;SDS011;4983;42.112;24.738;2023-12-29T14:31:28;18.45;;;10.95;;
9888;SDS011;4983;42.112;24.738;2023-12-29T14:33:58;30.45;;;12.10;;
9888;SDS011;4983;42.112;24.738;2023-12-29T14:36:23;55.17;;;14.77;;
9888;SDS011;4983;42.112;24.738;2023-12-29T14:38:49;18.17;;;11.90;;
9888;SDS011;4983;42.112;24.738;2023-12-29T14:41:14;34.55;;;13.45;;
9888;SDS011;4983;42.112;24.738;2023-12-29T14:43:40;20.80;;;10.45;;
9888;SDS011;4983;42.112;24.738;2023-12-29T14:46:05;17.65;;;10.55;;
9888;SDS011;4983;42.112;24.738;2023-12-29T14:48:31;28.17;;;11.32;;
9888;SDS011;4983;42.112;24.738;2023-12-29T14:50:57;16.45;;;10.75;;
9888;SDS011;4983;42.112;24.738;2023-12-29T14:53:22;29.50;;;11.30;;
9888;SDS011;4983;42.112;24.738;2023-12-29T14:55:48;28.45;;;12.80;;
9888;SDS011;4983;42.112;24.738;2023-12-29T14:58:13;28.15;;;11.00;;
9888;SDS011;4983;42.112;24.738;2023-12-29T15:00:39;42.67;;;12.00;;
9888;SDS011;4983;42.112;24.738;2023-12-29T15:03:04;39.17;;;12.70;;
9888;SDS011;4983;42.112;24.738;2023-12-29T15:05:30;25.40;;;10.35;;
9888;SDS011;4983;42.112;24.738;2023-12-29T15:07:55;33.83;;;11.80;;
9888;SDS011;4983;42.112;24.738;2023-12-29T15:10:21;29.23;;;12.10;;